Flight Track Log - Related Links

Times and Time Zones

All times are in EDT time to prevent confusion due to time zone crossing. See the EJA396 flight status page for this flight to view local times or setup timezone preferences in your user account.

Time Position Orientation Groundspeed Altitude Reporting Facility
EDT Latitude Longitude Course Direction KTS MPH feet Rate Location/Type
Mon 03:23:10 PM 33.4500 -111.7333 180° South 161 185 2,000  Level Phoenix TRACON
Mon 03:24:05 PM 33.4000 -111.7333 180° South 211 243 3,000 1,043 Climbing Phoenix TRACON
Mon 03:25:05 PM 33.3500 -111.7333 180° South 204 235 4,000 850 Climbing Phoenix TRACON
Mon 03:26:05 PM 33.3167 -111.7667 220° Southwest 197 227 4,700 1,148 Climbing Phoenix TRACON
Mon 03:27:00 PM 33.2833 -111.8167 231° Southwest 208 239 6,200 2,348 Climbing Phoenix TRACON
Mon 03:28:00 PM 33.2333 -111.8667 220° Southwest 225 259 9,200 3,650 Climbing Phoenix TRACON
Mon 03:29:00 PM 33.2333 -111.9500 270° West 265 305 13,500 3,800 Climbing Phoenix TRACON
Mon 03:30:00 PM 33.3167 -111.9500 360° North 309 356 16,800 3,091 Climbing Phoenix TRACON
Mon 03:31:12 PM 33.4333 -111.9333 North 353 406 20,300 2,083 Climbing Phoenix TRACON
Mon 03:32:01 PM 33.5167 -111.9167 North 394 453 21,000 1,234 Climbing Phoenix TRACON
Mon 03:33:33 PM 33.6886 -111.8703 13° North 420 483 23,200 2,026 Climbing Albuquerque Center
Mon 03:34:35 PM 33.8044 -111.8247 18° North 413 475 26,200 2,710 Climbing Albuquerque Center
Mon 03:35:37 PM 33.9147 -111.7811 18° North 416 479 28,800 2,226 Climbing Albuquerque Center
Mon 03:36:39 PM 34.0286 -111.7361 18° North 428 493 30,800 2,129 Climbing Albuquerque Center
Mon 03:37:41 PM 34.1528 -111.6872 18° North 432 497 33,200 2,129 Climbing Albuquerque Center
Mon 03:38:43 PM 34.2639 -111.6439 18° North 433 498 35,200 1,984 Climbing Albuquerque Center
Mon 03:39:45 PM 34.3775 -111.6447 360° North 422 486 37,300 1,854 Climbing Albuquerque Center
Mon 03:40:46 PM 34.4839 -111.6778 346° North 406 467 39,000 1,317 Climbing Albuquerque Center
Mon 03:41:48 PM 34.5903 -111.7106 346° North 400 460 40,000 484 Climbing Albuquerque Center
Mon 03:42:50 PM 34.7256 -111.7536 345° North 408 470 40,000  Level Albuquerque Center
Mon 03:43:52 PM 34.8467 -111.7917 346° North 440 506 40,000  Level Albuquerque Center
Mon 03:44:54 PM 34.9669 -111.8303 345° North 447 514 40,000  Level Albuquerque Center
Mon 03:45:56 PM 35.0889 -111.8686 346° North 452 520 40,000  Level Albuquerque Center
Mon 03:46:58 PM 35.2114 -111.9072 346° North 453 521 40,000  Level Albuquerque Center
Mon 03:48:00 PM 35.3583 -111.9536 346° North 455 524 40,000  Level Albuquerque Center
Mon 03:49:02 PM 35.4825 -111.9931 345° North 460 529 40,000  Level Albuquerque Center
Mon 03:50:06 PM 35.6039 -112.0311 346° North 461 531 40,000  Level Los Angeles Center
Mon 03:51:09 PM 35.7269 -112.0703 346° North 460 529 40,000  Level Los Angeles Center
Mon 03:53:09 PM 35.9989 -112.1503 347° North 461 531 40,000  Level Albuquerque Center
Mon 03:54:11 PM 36.1278 -112.1625 356° North 463 533 40,000  Level Albuquerque Center
Mon 03:55:18 PM 36.2617 -112.1761 355° North 466 536 40,000  Level Los Angeles Center
Mon 03:56:19 PM 36.3906 -112.1914 355° North 465 535 40,000  Level Los Angeles Center
Mon 03:57:22 PM 36.5203 -112.2042 355° North 465 535 40,000  Level Los Angeles Center
Mon 03:58:23 PM 36.6497 -112.2172 355° North 465 535 40,000  Level Los Angeles Center
Mon 03:59:24 PM 36.8044 -112.2336 355° North 466 536 40,000  Level Los Angeles Center
Mon 04:00:26 PM 36.9342 -112.2472 355° North 466 536 40,000  Level Los Angeles Center
Mon 04:01:30 PM 37.0628 -112.2608 355° North 466 536 40,000  Level Los Angeles Center
Mon 04:02:30 PM 37.1947 -112.2747 355° North 470 541 40,000  Level Los Angeles Center
Mon 04:03:34 PM 37.3256 -112.2886 355° North 474 545 40,000  Level Los Angeles Center
Mon 04:04:36 PM 37.4808 -112.3047 355° North 472 543 40,000  Level Los Angeles Center
Mon 04:05:54 PM 37.6361 -112.3217 355° North 471 542 40,000  Level Salt Lake Center
Mon 04:06:55 PM 37.7931 -112.3397 355° North 472 543 40,000  Level Salt Lake Center
Mon 04:07:57 PM 37.9231 -112.3536 355° North 472 543 40,000  Level Salt Lake Center
Mon 04:08:58 PM 38.0531 -112.3675 355° North 472 543 40,000  Level Salt Lake Center
Mon 04:10:00 PM 38.1825 -112.3808 355° North 471 542 40,000  Level Salt Lake Center
Mon 04:11:02 PM 38.3128 -112.3956 355° North 472 543 40,000  Level Salt Lake Center
Mon 04:12:03 PM 38.4433 -112.4106 355° North 472 543 40,000  Level Salt Lake Center
Mon 04:13:05 PM 38.5731 -112.4239 355° North 471 542 40,000 439 Level Salt Lake Center
Mon 04:14:06 PM 38.7286 -112.4411 355° North 471 542 40,900 829 Climbing Salt Lake Center
Mon 04:15:08 PM 38.8581 -112.4564 355° North 470 541 41,700 780 Climbing Salt Lake Center
Mon 04:16:09 PM 38.9892 -112.4706 355° North 470 541 42,500 634 Climbing Salt Lake Center
Mon 04:17:11 PM 39.1164 -112.4850 355° North 464 534 43,000 242 Climbing Salt Lake Center
Mon 04:18:13 PM 39.2397 -112.4978 355° North 466 536 43,000  Level Salt Lake Center
Mon 04:19:14 PM 39.3731 -112.5028 358° North 476 548 43,000  Level Salt Lake Center
Mon 04:20:16 PM 39.5333 -112.5017 360° North 480 552 43,000  Level Salt Lake Center
Mon 04:21:18 PM 39.6669 -112.4989 North 480 552 43,000  Level Salt Lake Center
Mon 04:22:19 PM 39.8006 -112.4972 North 480 552 43,000  Level Salt Lake Center
Mon 04:23:21 PM 39.9356 -112.4950 North 482 555 43,000  Level Salt Lake Center
Mon 04:24:22 PM 40.0694 -112.4928 North 481 554 43,000  Level Salt Lake Center
Mon 04:25:24 PM 40.2036 -112.4900 North 482 555 43,000  Level Salt Lake Center
Mon 04:26:25 PM 40.3383 -112.4869 North 481 554 43,000  Level Salt Lake Center
Mon 04:27:27 PM 40.4719 -112.4844 North 482 555 43,000  Level Salt Lake Center
Mon 04:28:29 PM 40.6325 -112.4811 North 480 552 43,000  Level Salt Lake Center
Mon 04:29:30 PM 40.7664 -112.4789 North 478 550 43,000  Level Salt Lake Center
Mon 04:30:32 PM 40.8978 -112.4764 North 472 543 43,000  Level Salt Lake Center
Mon 04:31:33 PM 41.0300 -112.4733 North 472 543 43,000  Level Salt Lake Center
Mon 04:32:35 PM 41.1617 -112.4717 North 469 540 43,000  Level Salt Lake Center
Mon 04:33:37 PM 41.2939 -112.4694 North 469 540 43,000  Level Salt Lake Center
Mon 04:34:38 PM 41.4269 -112.4667 North 472 543 43,000  Level Salt Lake Center
Mon 04:35:40 PM 41.5586 -112.4647 North 472 543 43,000  Level Salt Lake Center
Mon 04:36:41 PM 41.6897 -112.4675 359° North 472 543 43,000  Level Salt Lake Center
Mon 04:37:43 PM 41.8428 -112.5028 350° North 469 540 43,000  Level Salt Lake Center
Mon 04:38:45 PM 41.9708 -112.5300 351° North 468 539 43,000  Level Salt Lake Center
Mon 04:39:46 PM 42.0983 -112.5600 350° North 468 539 43,000  Level Salt Lake Center
Mon 04:40:48 PM 42.2272 -112.5903 350° North 468 539 43,000  Level Salt Lake Center
Mon 04:41:49 PM 42.3556 -112.6192 351° North 468 539 43,000  Level Salt Lake Center
Mon 04:42:51 PM 42.4850 -112.6517 350° North 468 539 43,000  Level Salt Lake Center
Mon 04:43:53 PM 42.6147 -112.6814 350° North 470 541 43,000  Level Salt Lake Center
Mon 04:44:54 PM 42.7522 -112.7144 350° North 471 542 43,000  Level Salt Lake Center
Mon 04:45:56 PM 42.8972 -112.7492 350° North 471 542 43,000  Level Salt Lake Center
Mon 04:46:58 PM 43.0206 -112.7783 350° North 471 542 43,000  Level Salt Lake Center
Mon 04:47:59 PM 43.1647 -112.8131 350° North 471 542 43,000  Level Salt Lake Center
Mon 04:49:01 PM 43.2886 -112.8442 350° North 471 542 43,000  Level Salt Lake Center
Mon 04:50:02 PM 43.4125 -112.8747 350° North 471 542 43,000  Level Salt Lake Center
Mon 04:51:04 PM 43.5583 -112.9100 350° North 471 542 43,000 -145 Level Salt Lake Center
Mon 04:52:06 PM 43.6828 -112.9414 350° North 472 543 42,700 -683 Descending Salt Lake Center
Mon 04:53:07 PM 43.8281 -112.9769 350° North 473 544 41,600 -829 Descending Salt Lake Center
Mon 04:54:09 PM 43.9506 -113.0075 350° North 471 542 41,000 -293 Descending Salt Lake Center
Mon 04:55:10 PM 44.0725 -113.0378 350° North 468 539 41,000  Level Salt Lake Center
Mon 04:56:12 PM 44.2172 -113.0739 350° North 468 539 41,000  Level Salt Lake Center
Mon 04:57:13 PM 44.3417 -113.1042 350° North 469 540 41,000  Level Salt Lake Center
Mon 04:58:15 PM 44.4853 -113.1414 350° North 469 540 41,000  Level Salt Lake Center
Mon 04:59:19 PM 44.6083 -113.1719 350° North 469 540 41,000  Level Salt Lake Center
Mon 05:00:20 PM 44.7511 -113.2083 350° North 468 539 41,000  Level Salt Lake Center
Mon 05:01:22 PM 44.8736 -113.2397 350° North 467 537 41,000  Level Salt Lake Center
Mon 05:02:23 PM 44.9958 -113.2711 350° North 466 536 41,000  Level Salt Lake Center
Mon 05:03:25 PM 45.1386 -113.3081 350° North 466 536 41,000  Level Salt Lake Center
Mon 05:04:27 PM 45.2594 -113.3397 350° North 465 535 41,000  Level Salt Lake Center
Mon 05:05:28 PM 45.3994 -113.3764 350° North 463 533 41,000  Level Salt Lake Center
Mon 05:06:30 PM 45.5303 -113.4100 350° North 462 532 41,000  Level Salt Lake Center
Mon 05:07:32 PM 45.6608 -113.4461 349° North 470 541 41,000  Level Salt Lake Center
Mon 05:08:33 PM 45.7897 -113.4800 350° North 466 536 41,000  Level Salt Lake Center
Mon 05:09:35 PM 45.9208 -113.5144 350° North 467 537 41,000  Level Salt Lake Center
Mon 05:10:36 PM 46.0533 -113.5500 349° North 473 544 41,000  Level Salt Lake Center
Mon 05:11:38 PM 46.1861 -113.5875 349° North 464 534 41,000  Level Salt Lake Center
Mon 05:12:40 PM 46.3106 -113.6308 346° North 463 533 41,000 -341 Level Salt Lake Center
Mon 05:13:41 PM 46.4333 -113.6744 346° North 455 524 40,300 -1,561 Descending Salt Lake Center
Mon 05:14:43 PM 46.5567 -113.7222 345° North 456 525 37,800 -2,439 Descending Salt Lake Center
Mon 05:15:44 PM 46.6822 -113.7681 346° North 461 531 35,300 -2,390 Descending Salt Lake Center
Mon 05:16:46 PM 46.8050 -113.8144 346° North 460 529 32,900 -2,274 Descending Salt Lake Center
Mon 05:17:48 PM 46.9244 -113.8603 345° North 447 514 30,600 -2,244 Descending Salt Lake Center
Mon 05:18:49 PM 47.0356 -113.9028 345° North 416 479 28,300 -2,293 Descending Salt Lake Center
Mon 05:19:51 PM 47.1608 -113.9511 345° North 388 447 25,900 -2,146 Descending Salt Lake Center
Mon 05:20:52 PM 47.2625 -113.9911 345° North 382 440 23,900 -1,951 Descending Salt Lake Center
Mon 05:21:54 PM 47.3597 -114.0272 346° North 365 420 21,900 -1,839 Descending Salt Lake Center
Mon 05:22:56 PM 47.4522 -114.0639 345° North 349 402 20,100 -1,742 Descending Salt Lake Center
Mon 05:23:58 PM 47.5425 -114.0994 345° North 341 392 18,300 -3,268 Descending Salt Lake Center
Mon 05:24:59 PM 47.6289 -114.1339 345° North 330 380 13,400 -3,610 Descending Salt Lake Center
Mon 05:26:01 PM 47.7097 -114.1606 347° North 277 319 10,900 -2,419 Descending Salt Lake Center

Login

Don't have an account? Register now (free) for customized features, flight alerts, and more!